sensor_id;sensor_type;location;lat;lon;timestamp;pressure;altitude;pressure_sealevel;temperature;humidity
79400;BME280;68856;45.586;10.264;2023-12-20T00:01:42;99523.53;;;2.85;nan
79400;BME280;68856;45.586;10.264;2023-12-20T00:04:08;99523.22;;;2.61;nan
79400;BME280;68856;45.586;10.264;2023-12-20T00:06:35;99515.09;;;2.88;nan
79400;BME280;68856;45.586;10.264;2023-12-20T00:09:01;99509.53;;;2.56;nan
79400;BME280;68856;45.586;10.264;2023-12-20T00:11:27;99503.31;;;2.48;nan
79400;BME280;68856;45.586;10.264;2023-12-20T00:13:53;99497.66;;;2.65;nan
79400;BME280;68856;45.586;10.264;2023-12-20T00:16:19;99502.16;;;2.64;nan
79400;BME280;68856;45.586;10.264;2023-12-20T00:18:46;99495.56;;;2.60;nan
79400;BME280;68856;45.586;10.264;2023-12-20T00:21:12;99475.91;;;3.00;nan
79400;BME280;68856;45.586;10.264;2023-12-20T00:23:38;99471.25;;;3.22;nan
79400;BME280;68856;45.586;10.264;2023-12-20T00:26:04;99467.75;;;3.35;nan
79400;BME280;68856;45.586;10.264;2023-12-20T00:28:31;99458.63;;;3.16;nan
79400;BME280;68856;45.586;10.264;2023-12-20T00:30:57;99464.41;;;2.59;nan
79400;BME280;68856;45.586;10.264;2023-12-20T00:33:23;99454.59;;;2.79;nan
79400;BME280;68856;45.586;10.264;2023-12-20T00:35:49;99447.09;;;3.35;nan
79400;BME280;68856;45.586;10.264;2023-12-20T00:38:15;99448.03;;;2.88;nan
79400;BME280;68856;45.586;10.264;2023-12-20T00:40:42;99445.78;;;2.44;nan
79400;BME280;68856;45.586;10.264;2023-12-20T00:43:08;99450.59;;;2.62;nan
79400;BME280;68856;45.586;10.264;2023-12-20T00:45:34;99443.06;;;2.85;nan
79400;BME280;68856;45.586;10.264;2023-12-20T00:48:00;99442.72;;;2.47;nan
79400;BME280;68856;45.586;10.264;2023-12-20T00:50:26;99436.31;;;2.48;nan
79400;BME280;68856;45.586;10.264;2023-12-20T00:52:53;99429.22;;;2.82;nan
79400;BME280;68856;45.586;10.264;2023-12-20T00:55:20;99435.63;;;2.33;nan
79400;BME280;68856;45.586;10.264;2023-12-20T00:57:46;99437.13;;;2.42;nan
79400;BME280;68856;45.586;10.264;2023-12-20T01:00:13;99430.84;;;2.29;nan
79400;BME280;68856;45.586;10.264;2023-12-20T01:02:39;99428.97;;;2.23;nan
79400;BME280;68856;45.586;10.264;2023-12-20T01:05:06;99423.66;;;2.36;nan
79400;BME280;68856;45.586;10.264;2023-12-20T01:07:33;99424.09;;;2.39;nan
79400;BME280;68856;45.586;10.264;2023-12-20T01:10:00;99413.72;;;2.30;nan
79400;BME280;68856;45.586;10.264;2023-12-20T01:12:26;99422.00;;;2.76;nan
79400;BME280;68856;45.586;10.264;2023-12-20T01:14:52;99417.63;;;2.68;nan
79400;BME280;68856;45.586;10.264;2023-12-20T01:17:19;99417.84;;;2.26;nan
79400;BME280;68856;45.586;10.264;2023-12-20T01:19:45;99421.66;;;2.44;nan
79400;BME280;68856;45.586;10.264;2023-12-20T01:22:11;99419.31;;;2.35;nan
79400;BME280;68856;45.586;10.264;2023-12-20T01:24:37;99418.94;;;2.38;nan
79400;BME280;68856;45.586;10.264;2023-12-20T01:27:03;99416.09;;;2.12;nan
79400;BME280;68856;45.586;10.264;2023-12-20T01:29:30;99414.56;;;2.30;nan
79400;BME280;68856;45.586;10.264;2023-12-20T01:31:56;99410.41;;;2.21;nan
79400;BME280;68856;45.586;10.264;2023-12-20T01:34:22;99413.72;;;2.23;nan
79400;BME280;68856;45.586;10.264;2023-12-20T01:36:48;99406.53;;;2.84;nan
79400;BME280;68856;45.586;10.264;2023-12-20T01:39:15;99402.78;;;2.79;nan
79400;BME280;68856;45.586;10.264;2023-12-20T01:41:41;99404.13;;;2.48;nan
79400;BME280;68856;45.586;10.264;2023-12-20T01:44:07;99410.66;;;2.33;nan
79400;BME280;68856;45.586;10.264;2023-12-20T01:46:33;99403.56;;;2.66;nan
79400;BME280;68856;45.586;10.264;2023-12-20T01:49:00;99404.56;;;2.52;nan
79400;BME280;68856;45.586;10.264;2023-12-20T01:51:26;99384.09;;;3.18;nan
79400;BME280;68856;45.586;10.264;2023-12-20T01:53:55;99391.97;;;2.46;nan
79400;BME280;68856;45.586;10.264;2023-12-20T01:56:24;99395.50;;;2.12;nan
79400;BME280;68856;45.586;10.264;2023-12-20T01:58:50;99380.06;;;2.14;nan
79400;BME280;68856;45.586;10.264;2023-12-20T02:01:17;99370.84;;;2.30;nan
79400;BME280;68856;45.586;10.264;2023-12-20T02:03:44;99369.31;;;2.08;nan
79400;BME280;68856;45.586;10.264;2023-12-20T02:06:11;99364.38;;;2.59;nan
79400;BME280;68856;45.586;10.264;2023-12-20T02:08:38;99366.81;;;2.47;nan
79400;BME280;68856;45.586;10.264;2023-12-20T02:11:04;99365.84;;;2.14;nan
79400;BME280;68856;45.586;10.264;2023-12-20T02:13:31;99355.94;;;2.08;nan
79400;BME280;68856;45.586;10.264;2023-12-20T02:15:58;99359.28;;;2.23;nan
79400;BME280;68856;45.586;10.264;2023-12-20T02:18:24;99362.19;;;2.28;nan
79400;BME280;68856;45.586;10.264;2023-12-20T02:20:50;99344.88;;;2.30;nan
79400;BME280;68856;45.586;10.264;2023-12-20T02:23:16;99350.94;;;1.98;nan
79400;BME280;68856;45.586;10.264;2023-12-20T02:25:43;99341.97;;;2.86;nan
79400;BME280;68856;45.586;10.264;2023-12-20T02:28:09;99338.81;;;2.69;nan
79400;BME280;68856;45.586;10.264;2023-12-20T02:30:35;99328.06;;;2.49;nan
79400;BME280;68856;45.586;10.264;2023-12-20T02:33:05;99330.38;;;2.72;nan
79400;BME280;68856;45.586;10.264;2023-12-20T02:35:34;99328.91;;;2.57;nan
79400;BME280;68856;45.586;10.264;2023-12-20T02:38:00;99319.00;;;2.64;nan
79400;BME280;68856;45.586;10.264;2023-12-20T02:40:26;99318.22;;;2.89;nan
79400;BME280;68856;45.586;10.264;2023-12-20T02:42:52;99316.75;;;2.67;nan
79400;BME280;68856;45.586;10.264;2023-12-20T02:45:19;99318.16;;;2.57;nan
79400;BME280;68856;45.586;10.264;2023-12-20T02:47:45;99304.38;;;2.79;nan
79400;BME280;68856;45.586;10.264;2023-12-20T02:50:11;99300.91;;;2.92;nan
79400;BME280;68856;45.586;10.264;2023-12-20T02:52:37;99290.59;;;2.95;nan
79400;BME280;68856;45.586;10.264;2023-12-20T02:55:04;99289.97;;;2.93;nan
79400;BME280;68856;45.586;10.264;2023-12-20T02:57:30;99276.94;;;3.23;nan
79400;BME280;68856;45.586;10.264;2023-12-20T02:59:56;99279.84;;;2.76;nan
79400;BME280;68856;45.586;10.264;2023-12-20T03:02:23;99274.69;;;2.81;nan
79400;BME280;68856;45.586;10.264;2023-12-20T03:04:49;99278.63;;;3.04;nan
79400;BME280;68856;45.586;10.264;2023-12-20T03:07:15;99275.09;;;3.10;nan
79400;BME280;68856;45.586;10.264;2023-12-20T03:09:41;99272.22;;;3.19;nan
79400;BME280;68856;45.586;10.264;2023-12-20T03:12:08;99271.63;;;3.94;nan
79400;BME280;68856;45.586;10.264;2023-12-20T03:14:34;99267.22;;;3.55;nan
79400;BME280;68856;45.586;10.264;2023-12-20T03:17:00;99251.13;;;3.42;nan
79400;BME280;68856;45.586;10.264;2023-12-20T03:19:27;99249.69;;;3.39;nan
79400;BME280;68856;45.586;10.264;2023-12-20T03:21:53;99252.19;;;3.08;nan
79400;BME280;68856;45.586;10.264;2023-12-20T03:24:19;99262.50;;;3.24;nan
79400;BME280;68856;45.586;10.264;2023-12-20T03:26:45;99256.66;;;3.60;nan
79400;BME280;68856;45.586;10.264;2023-12-20T03:29:12;99265.25;;;3.88;nan
79400;BME280;68856;45.586;10.264;2023-12-20T03:31:38;99260.84;;;4.00;nan
79400;BME280;68856;45.586;10.264;2023-12-20T03:34:04;99260.94;;;3.81;nan
79400;BME280;68856;45.586;10.264;2023-12-20T03:36:30;99258.25;;;3.81;nan
79400;BME280;68856;45.586;10.264;2023-12-20T03:38:56;99263.53;;;3.43;nan
79400;BME280;68856;45.586;10.264;2023-12-20T03:41:23;99255.06;;;3.33;nan
79400;BME280;68856;45.586;10.264;2023-12-20T03:43:49;99255.09;;;3.20;nan
79400;BME280;68856;45.586;10.264;2023-12-20T03:46:15;99259.19;;;3.35;nan
79400;BME280;68856;45.586;10.264;2023-12-20T03:48:41;99255.69;;;3.28;nan
79400;BME280;68856;45.586;10.264;2023-12-20T03:51:08;99259.81;;;3.37;nan
79400;BME280;68856;45.586;10.264;2023-12-20T03:53:34;99264.91;;;3.65;nan
79400;BME280;68856;45.586;10.264;2023-12-20T03:56:00;99262.22;;;3.65;nan
79400;BME280;68856;45.586;10.264;2023-12-20T03:58:27;99253.31;;;3.64;nan
79400;BME280;68856;45.586;10.264;2023-12-20T04:00:53;99253.50;;;3.76;nan
79400;BME280;68856;45.586;10.264;2023-12-20T04:03:19;99250.97;;;3.88;nan
79400;BME280;68856;45.586;10.264;2023-12-20T04:05:45;99245.00;;;3.86;nan
79400;BME280;68856;45.586;10.264;2023-12-20T04:08:12;99241.72;;;3.84;nan
79400;BME280;68856;45.586;10.264;2023-12-20T04:10:38;99239.22;;;3.82;nan
79400;BME280;68856;45.586;10.264;2023-12-20T04:13:04;99239.06;;;3.64;nan
79400;BME280;68856;45.586;10.264;2023-12-20T04:15:31;99236.03;;;3.47;nan
79400;BME280;68856;45.586;10.264;2023-12-20T04:17:57;99239.16;;;3.95;nan
79400;BME280;68856;45.586;10.264;2023-12-20T04:20:23;99229.78;;;3.66;nan
79400;BME280;68856;45.586;10.264;2023-12-20T04:22:49;99230.22;;;4.08;nan
79400;BME280;68856;45.586;10.264;2023-12-20T04:25:15;99232.41;;;3.79;nan
79400;BME280;68856;45.586;10.264;2023-12-20T04:27:42;99231.75;;;3.97;nan
79400;BME280;68856;45.586;10.264;2023-12-20T04:30:08;99221.53;;;3.61;nan
79400;BME280;68856;45.586;10.264;2023-12-20T04:32:35;99231.72;;;3.40;nan
79400;BME280;68856;45.586;10.264;2023-12-20T04:35:01;99223.53;;;3.79;nan
79400;BME280;68856;45.586;10.264;2023-12-20T04:37:27;99233.13;;;3.49;nan
79400;BME280;68856;45.586;10.264;2023-12-20T04:39:53;99230.66;;;3.41;nan
79400;BME280;68856;45.586;10.264;2023-12-20T04:42:20;99230.66;;;3.41;nan
79400;BME280;68856;45.586;10.264;2023-12-20T04:44:46;99229.66;;;3.42;nan
79400;BME280;68856;45.586;10.264;2023-12-20T04:47:13;99219.25;;;3.65;nan
79400;BME280;68856;45.586;10.264;2023-12-20T04:49:39;99219.44;;;3.70;nan
79400;BME280;68856;45.586;10.264;2023-12-20T04:52:05;99213.72;;;4.04;nan
79400;BME280;68856;45.586;10.264;2023-12-20T04:54:32;99196.69;;;3.79;nan
79400;BME280;68856;45.586;10.264;2023-12-20T04:56:58;99205.22;;;3.63;nan
79400;BME280;68856;45.586;10.264;2023-12-20T04:59:24;99205.91;;;3.96;nan
79400;BME280;68856;45.586;10.264;2023-12-20T05:01:50;99198.34;;;3.73;nan
79400;BME280;68856;45.586;10.264;2023-12-20T05:04:16;99197.56;;;3.66;nan
79400;BME280;68856;45.586;10.264;2023-12-20T05:06:43;99200.34;;;3.85;nan
79400;BME280;68856;45.586;10.264;2023-12-20T05:09:09;99206.19;;;3.82;nan
79400;BME280;68856;45.586;10.264;2023-12-20T05:11:35;99202.44;;;3.89;nan
79400;BME280;68856;45.586;10.264;2023-12-20T05:14:01;99202.84;;;3.79;nan
79400;BME280;68856;45.586;10.264;2023-12-20T05:16:27;99214.00;;;3.90;nan
79400;BME280;68856;45.586;10.264;2023-12-20T05:18:54;99219.09;;;3.98;nan
79400;BME280;68856;45.586;10.264;2023-12-20T05:21:20;99212.13;;;3.90;nan
79400;BME280;68856;45.586;10.264;2023-12-20T05:23:47;99213.78;;;3.91;nan
79400;BME280;68856;45.586;10.264;2023-12-20T05:26:13;99208.81;;;3.88;nan
79400;BME280;68856;45.586;10.264;2023-12-20T05:28:39;99196.81;;;4.28;nan
79400;BME280;68856;45.586;10.264;2023-12-20T05:31:05;99195.97;;;3.97;nan
79400;BME280;68856;45.586;10.264;2023-12-20T05:33:32;99194.13;;;3.91;nan
79400;BME280;68856;45.586;10.264;2023-12-20T05:35:59;99186.06;;;3.97;nan
79400;BME280;68856;45.586;10.264;2023-12-20T05:38:25;99174.84;;;4.00;nan
79400;BME280;68856;45.586;10.264;2023-12-20T05:40:52;99177.81;;;3.92;nan
79400;BME280;68856;45.586;10.264;2023-12-20T05:43:18;99173.47;;;3.47;nan
79400;BME280;68856;45.586;10.264;2023-12-20T05:45:44;99183.50;;;3.64;nan
79400;BME280;68856;45.586;10.264;2023-12-20T05:48:10;99182.41;;;4.16;nan
79400;BME280;68856;45.586;10.264;2023-12-20T05:50:36;99182.41;;;4.16;nan
79400;BME280;68856;45.586;10.264;2023-12-20T05:53:03;99184.63;;;3.95;nan
79400;BME280;68856;45.586;10.264;2023-12-20T05:55:29;99189.59;;;3.85;nan
79400;BME280;68856;45.586;10.264;2023-12-20T05:57:55;99186.91;;;3.91;nan
79400;BME280;68856;45.586;10.264;2023-12-20T06:00:22;99177.72;;;4.05;nan
79400;BME280;68856;45.586;10.264;2023-12-20T06:02:48;99187.84;;;4.41;nan
79400;BME280;68856;45.586;10.264;2023-12-20T06:05:14;99180.06;;;4.33;nan
79400;BME280;68856;45.586;10.264;2023-12-20T06:07:40;99179.06;;;4.21;nan
79400;BME280;68856;45.586;10.264;2023-12-20T06:10:07;99187.31;;;4.26;nan
79400;BME280;68856;45.586;10.264;2023-12-20T06:12:33;99173.50;;;4.54;nan
79400;BME280;68856;45.586;10.264;2023-12-20T06:15:02;99177.03;;;4.16;nan
79400;BME280;68856;45.586;10.264;2023-12-20T06:17:29;99177.13;;;4.03;nan
79400;BME280;68856;45.586;10.264;2023-12-20T06:19:57;99173.84;;;4.57;nan
79400;BME280;68856;45.586;10.264;2023-12-20T06:22:23;99182.91;;;4.38;nan
79400;BME280;68856;45.586;10.264;2023-12-20T06:24:49;99188.69;;;4.10;nan
79400;BME280;68856;45.586;10.264;2023-12-20T06:27:15;99193.25;;;4.34;nan
79400;BME280;68856;45.586;10.264;2023-12-20T06:29:41;99191.06;;;4.25;nan
79400;BME280;68856;45.586;10.264;2023-12-20T06:32:10;99186.38;;;4.14;nan
79400;BME280;68856;45.586;10.264;2023-12-20T06:34:36;99198.66;;;3.97;nan
79400;BME280;68856;45.586;10.264;2023-12-20T06:37:03;99200.47;;;4.09;nan
79400;BME280;68856;45.586;10.264;2023-12-20T06:39:31;99183.28;;;4.41;nan
79400;BME280;68856;45.586;10.264;2023-12-20T06:41:57;99181.16;;;4.19;nan
79400;BME280;68856;45.586;10.264;2023-12-20T06:44:23;99185.34;;;4.15;nan
79400;BME280;68856;45.586;10.264;2023-12-20T06:46:50;99189.22;;;4.19;nan
79400;BME280;68856;45.586;10.264;2023-12-20T06:49:16;99171.28;;;4.69;nan
79400;BME280;68856;45.586;10.264;2023-12-20T06:51:42;99171.09;;;4.88;nan
79400;BME280;68856;45.586;10.264;2023-12-20T06:54:08;99160.97;;;4.66;nan
79400;BME280;68856;45.586;10.264;2023-12-20T06:56:35;99164.69;;;4.89;nan
79400;BME280;68856;45.586;10.264;2023-12-20T06:59:01;99175.06;;;5.11;nan
79400;BME280;68856;45.586;10.264;2023-12-20T07:01:27;99162.50;;;4.80;nan
79400;BME280;68856;45.586;10.264;2023-12-20T07:03:54;99173.75;;;4.95;nan
79400;BME280;68856;45.586;10.264;2023-12-20T07:06:20;99177.09;;;4.66;nan
79400;BME280;68856;45.586;10.264;2023-12-20T07:08:47;99180.31;;;4.50;nan
79400;BME280;68856;45.586;10.264;2023-12-20T07:11:13;99176.78;;;4.56;nan
79400;BME280;68856;45.586;10.264;2023-12-20T07:13:39;99181.66;;;4.65;nan
79400;BME280;68856;45.586;10.264;2023-12-20T07:16:05;99182.56;;;4.59;nan
79400;BME280;68856;45.586;10.264;2023-12-20T07:18:32;99184.44;;;4.52;nan
79400;BME280;68856;45.586;10.264;2023-12-20T07:20:59;99193.19;;;4.48;nan
79400;BME280;68856;45.586;10.264;2023-12-20T07:23:25;99183.03;;;4.74;nan
79400;BME280;68856;45.586;10.264;2023-12-20T07:25:52;99188.31;;;4.87;nan
79400;BME280;68856;45.586;10.264;2023-12-20T07:28:18;99185.63;;;4.87;nan
79400;BME280;68856;45.586;10.264;2023-12-20T07:30:45;99185.91;;;5.22;nan
79400;BME280;68856;45.586;10.264;2023-12-20T07:33:11;99186.69;;;5.04;nan
79400;BME280;68856;45.586;10.264;2023-12-20T07:35:38;99184.88;;;5.41;nan
79400;BME280;68856;45.586;10.264;2023-12-20T07:38:04;99182.22;;;5.17;nan
79400;BME280;68856;45.586;10.264;2023-12-20T07:40:31;99176.13;;;5.46;nan
79400;BME280;68856;45.586;10.264;2023-12-20T07:42:57;99185.50;;;5.00;nan
79400;BME280;68856;45.586;10.264;2023-12-20T07:45:24;99184.19;;;4.85;nan
79400;BME280;68856;45.586;10.264;2023-12-20T07:47:50;99182.25;;;4.92;nan
79400;BME280;68856;45.586;10.264;2023-12-20T07:50:16;99186.94;;;5.03;nan
79400;BME280;68856;45.586;10.264;2023-12-20T07:52:42;99191.66;;;5.26;nan
79400;BME280;68856;45.586;10.264;2023-12-20T07:55:09;99193.41;;;5.38;nan
79400;BME280;68856;45.586;10.264;2023-12-20T07:57:35;99188.06;;;5.68;nan
79400;BME280;68856;45.586;10.264;2023-12-20T08:00:01;99196.69;;;5.58;nan
79400;BME280;68856;45.586;10.264;2023-12-20T08:02:29;99209.31;;;5.40;nan
79400;BME280;68856;45.586;10.264;2023-12-20T08:04:55;99206.47;;;5.35;nan
79400;BME280;68856;45.586;10.264;2023-12-20T08:07:22;99207.16;;;5.30;nan
79400;BME280;68856;45.586;10.264;2023-12-20T08:09:48;99212.09;;;5.33;nan
79400;BME280;68856;45.586;10.264;2023-12-20T08:12:14;99211.53;;;5.49;nan
79400;BME280;68856;45.586;10.264;2023-12-20T08:14:42;99204.72;;;5.65;nan
79400;BME280;68856;45.586;10.264;2023-12-20T08:17:09;99196.78;;;6.18;nan
79400;BME280;68856;45.586;10.264;2023-12-20T08:19:35;99199.00;;;5.91;nan
79400;BME280;68856;45.586;10.264;2023-12-20T08:22:02;99192.56;;;6.22;nan
79400;BME280;68856;45.586;10.264;2023-12-20T08:24:29;99194.03;;;6.24;nan
79400;BME280;68856;45.586;10.264;2023-12-20T08:26:55;99188.63;;;6.24;nan
79400;BME280;68856;45.586;10.264;2023-12-20T08:29:21;99181.53;;;6.12;nan
79400;BME280;68856;45.586;10.264;2023-12-20T08:31:52;99191.03;;;5.85;nan
79400;BME280;68856;45.586;10.264;2023-12-20T08:34:20;99189.19;;;5.79;nan
79400;BME280;68856;45.586;10.264;2023-12-20T08:36:46;99187.25;;;6.04;nan
79400;BME280;68856;45.586;10.264;2023-12-20T08:39:12;99194.59;;;5.60;nan
79400;BME280;68856;45.586;10.264;2023-12-20T08:41:38;99200.88;;;5.36;nan
79400;BME280;68856;45.586;10.264;2023-12-20T08:44:04;99191.88;;;5.24;nan
79400;BME280;68856;45.586;10.264;2023-12-20T08:46:31;99176.78;;;5.78;nan
79400;BME280;68856;45.586;10.264;2023-12-20T08:48:57;99169.97;;;5.93;nan
79400;BME280;68856;45.586;10.264;2023-12-20T08:51:23;99157.06;;;6.25;nan
79400;BME280;68856;45.586;10.264;2023-12-20T08:53:51;99146.38;;;5.89;nan
79400;BME280;68856;45.586;10.264;2023-12-20T08:56:18;99154.91;;;6.04;nan
79400;BME280;68856;45.586;10.264;2023-12-20T08:58:45;99149.81;;;6.25;nan
79400;BME280;68856;45.586;10.264;2023-12-20T09:01:11;99139.00;;;6.25;nan
79400;BME280;68856;45.586;10.264;2023-12-20T09:03:38;99142.78;;;6.36;nan
79400;BME280;68856;45.586;10.264;2023-12-20T09:06:05;99141.09;;;6.76;nan
79400;BME280;68856;45.586;10.264;2023-12-20T09:08:31;99144.97;;;6.92;nan
79400;BME280;68856;45.586;10.264;2023-12-20T09:10:57;99144.06;;;7.10;nan
79400;BME280;68856;45.586;10.264;2023-12-20T09:13:24;99138.63;;;6.86;nan
79400;BME280;68856;45.586;10.264;2023-12-20T09:15:55;99137.06;;;6.56;nan
79400;BME280;68856;45.586;10.264;2023-12-20T09:18:21;99148.00;;;6.61;nan
79400;BME280;68856;45.586;10.264;2023-12-20T09:20:47;99153.56;;;6.89;nan
79400;BME280;68856;45.586;10.264;2023-12-20T09:23:14;99152.50;;;7.25;nan
79400;BME280;68856;45.586;10.264;2023-12-20T09:25:40;99151.53;;;7.31;nan
79400;BME280;68856;45.586;10.264;2023-12-20T09:28:06;99153.28;;;7.25;nan
79400;BME280;68856;45.586;10.264;2023-12-20T09:30:33;99152.03;;;7.16;nan
79400;BME280;68856;45.586;10.264;2023-12-20T09:32:59;99145.31;;;7.19;nan
79400;BME280;68856;45.586;10.264;2023-12-20T09:35:25;99135.72;;;7.63;nan
79400;BME280;68856;45.586;10.264;2023-12-20T09:37:52;99124.34;;;7.61;nan
79400;BME280;68856;45.586;10.264;2023-12-20T09:40:19;99129.34;;;7.40;nan
79400;BME280;68856;45.586;10.264;2023-12-20T09:45:47;99134.53;;;7.70;nan
79400;BME280;68856;45.586;10.264;2023-12-20T09:48:14;99132.50;;;7.77;nan
79400;BME280;68856;45.586;10.264;2023-12-20T09:50:44;99119.44;;;7.86;nan
79400;BME280;68856;45.586;10.264;2023-12-20T09:53:14;99120.88;;;7.77;nan
79400;BME280;68856;45.586;10.264;2023-12-20T09:55:41;99131.94;;;7.75;nan
79400;BME280;68856;45.586;10.264;2023-12-20T09:58:08;99129.56;;;7.39;nan
79400;BME280;68856;45.586;10.264;2023-12-20T10:00:35;99135.16;;;7.61;nan
79400;BME280;68856;45.586;10.264;2023-12-20T10:03:01;99121.22;;;8.08;nan
79400;BME280;68856;45.586;10.264;2023-12-20T10:05:29;99128.66;;;8.01;nan
79400;BME280;68856;45.586;10.264;2023-12-20T10:07:55;99123.63;;;7.93;nan
79400;BME280;68856;45.586;10.264;2023-12-20T10:10:22;99120.06;;;8.04;nan
79400;BME280;68856;45.586;10.264;2023-12-20T10:13:09;99115.38;;;8.28;nan
79400;BME280;68856;45.586;10.264;2023-12-20T10:15:37;99118.41;;;8.03;nan
79400;BME280;68856;45.586;10.264;2023-12-20T10:18:04;99115.69;;;8.03;nan
79400;BME280;68856;45.586;10.264;2023-12-20T10:20:31;99104.66;;;8.22;nan
79400;BME280;68856;45.586;10.264;2023-12-20T10:23:00;99100.31;;;8.49;nan
79400;BME280;68856;45.586;10.264;2023-12-20T10:25:27;99096.19;;;8.63;nan
79400;BME280;68856;45.586;10.264;2023-12-20T10:28:12;99101.22;;;8.88;nan
79400;BME280;68856;45.586;10.264;2023-12-20T10:30:39;99102.25;;;9.03;nan
79400;BME280;68856;45.586;10.264;2023-12-20T10:33:08;99107.19;;;8.90;nan
79400;BME280;68856;45.586;10.264;2023-12-20T10:35:36;99112.41;;;8.96;nan
79400;BME280;68856;45.586;10.264;2023-12-20T10:38:06;99123.13;;;9.24;nan
79400;BME280;68856;45.586;10.264;2023-12-20T10:40:36;99128.00;;;9.44;nan
79400;BME280;68856;45.586;10.264;2023-12-20T10:43:04;99118.34;;;9.53;nan
79400;BME280;68856;45.586;10.264;2023-12-20T10:45:31;99126.13;;;9.66;nan
79400;BME280;68856;45.586;10.264;2023-12-20T10:47:58;99115.44;;;9.81;nan
79400;BME280;68856;45.586;10.264;2023-12-20T10:50:28;99117.09;;;9.82;nan
79400;BME280;68856;45.586;10.264;2023-12-20T10:52:56;99124.00;;;9.95;nan
79400;BME280;68856;45.586;10.264;2023-12-20T10:55:23;99121.81;;;10.14;nan
79400;BME280;68856;45.586;10.264;2023-12-20T10:57:51;99116.72;;;10.22;nan
79400;BME280;68856;45.586;10.264;2023-12-20T11:00:19;99116.16;;;10.20;nan
79400;BME280;68856;45.586;10.264;2023-12-20T11:02:50;99115.38;;;10.25;nan
79400;BME280;68856;45.586;10.264;2023-12-20T11:05:30;99112.63;;;10.46;nan
79400;BME280;68856;45.586;10.264;2023-12-20T11:08:11;99103.13;;;10.81;nan
79400;BME280;68856;45.586;10.264;2023-12-20T11:10:56;99097.69;;;11.22;nan
79400;BME280;68856;45.586;10.264;2023-12-20T11:16:21;99083.09;;;10.55;nan
79400;BME280;68856;45.586;10.264;2023-12-20T11:18:47;99081.81;;;10.62;nan
79400;BME280;68856;45.586;10.264;2023-12-20T11:21:13;99071.25;;;10.71;nan
79400;BME280;68856;45.586;10.264;2023-12-20T11:23:42;99068.31;;;11.19;nan
79400;BME280;68856;45.586;10.264;2023-12-20T11:26:09;99056.47;;;11.41;nan
79400;BME280;68856;45.586;10.264;2023-12-20T11:28:35;99058.97;;;11.62;nan
79400;BME280;68856;45.586;10.264;2023-12-20T11:31:02;99063.16;;;11.90;nan
79400;BME280;68856;45.586;10.264;2023-12-20T11:33:37;99059.91;;;12.03;nan
79400;BME280;68856;45.586;10.264;2023-12-20T11:36:12;99061.28;;;12.11;nan
79400;BME280;68856;45.586;10.264;2023-12-20T11:38:45;99044.19;;;12.45;nan
79400;BME280;68856;45.586;10.264;2023-12-20T11:41:16;99044.66;;;12.98;nan
79400;BME280;68856;45.586;10.264;2023-12-20T11:43:42;99041.56;;;13.40;nan
79400;BME280;68856;45.586;10.264;2023-12-20T11:46:09;99039.66;;;13.35;nan
79400;BME280;68856;45.586;10.264;2023-12-20T11:48:38;99036.25;;;12.69;nan
79400;BME280;68856;45.586;10.264;2023-12-20T11:51:13;99022.66;;;12.59;nan
79400;BME280;68856;45.586;10.264;2023-12-20T11:53:40;99024.00;;;12.46;nan
79400;BME280;68856;45.586;10.264;2023-12-20T11:56:08;99034.91;;;12.11;nan
79400;BME280;68856;45.586;10.264;2023-12-20T11:58:35;99036.28;;;12.64;nan
79400;BME280;68856;45.586;10.264;2023-12-20T12:01:01;99022.63;;;12.74;nan
79400;BME280;68856;45.586;10.264;2023-12-20T12:03:33;99021.84;;;12.59;nan
79400;BME280;68856;45.586;10.264;2023-12-20T12:05:59;99038.19;;;12.28;nan
79400;BME280;68856;45.586;10.264;2023-12-20T12:08:27;99047.44;;;12.27;nan
79400;BME280;68856;45.586;10.264;2023-12-20T12:10:53;99031.56;;;13.10;nan
79400;BME280;68856;45.586;10.264;2023-12-20T12:13:19;99015.38;;;13.39;nan
79400;BME280;68856;45.586;10.264;2023-12-20T12:15:46;99014.06;;;13.80;nan
79400;BME280;68856;45.586;10.264;2023-12-20T12:18:16;99019.38;;;14.44;nan
79400;BME280;68856;45.586;10.264;2023-12-20T12:20:43;99018.13;;;15.36;nan
79400;BME280;68856;45.586;10.264;2023-12-20T12:23:09;99001.31;;;16.73;nan
79400;BME280;68856;45.586;10.264;2023-12-20T12:25:36;99003.03;;;20.41;nan
79400;BME280;68856;45.586;10.264;2023-12-20T12:28:03;98990.13;;;22.88;nan
79400;BME280;68856;45.586;10.264;2023-12-20T12:30:29;98992.81;;;23.09;nan
79400;BME280;68856;45.586;10.264;2023-12-20T12:32:56;98995.78;;;23.48;nan
79400;BME280;68856;45.586;10.264;2023-12-20T12:35:24;98985.06;;;24.51;nan
79400;BME280;68856;45.586;10.264;2023-12-20T12:37:50;98991.50;;;24.55;nan
79400;BME280;68856;45.586;10.264;2023-12-20T12:40:17;98985.78;;;21.84;nan
79400;BME280;68856;45.586;10.264;2023-12-20T12:42:45;99000.50;;;18.84;nan
79400;BME280;68856;45.586;10.264;2023-12-20T12:45:12;98999.31;;;18.10;nan
79400;BME280;68856;45.586;10.264;2023-12-20T12:47:38;98999.47;;;17.28;nan
79400;BME280;68856;45.586;10.264;2023-12-20T12:50:05;99002.25;;;16.18;nan
79400;BME280;68856;45.586;10.264;2023-12-20T12:52:32;99000.69;;;15.93;nan
79400;BME280;68856;45.586;10.264;2023-12-20T12:54:58;98995.28;;;16.26;nan
79400;BME280;68856;45.586;10.264;2023-12-20T12:57:24;98991.19;;;16.88;nan
79400;BME280;68856;45.586;10.264;2023-12-20T12:59:51;98984.59;;;15.49;nan
79400;BME280;68856;45.586;10.264;2023-12-20T13:02:17;98985.59;;;15.11;nan
79400;BME280;68856;45.586;10.264;2023-12-20T13:04:44;98994.34;;;15.13;nan
79400;BME280;68856;45.586;10.264;2023-12-20T13:07:11;98983.88;;;15.39;nan
79400;BME280;68856;45.586;10.264;2023-12-20T13:09:38;98987.81;;;15.33;nan
79400;BME280;68856;45.586;10.264;2023-12-20T13:12:05;98979.50;;;14.95;nan
79400;BME280;68856;45.586;10.264;2023-12-20T13:14:35;98976.66;;;13.32;nan
79400;BME280;68856;45.586;10.264;2023-12-20T13:17:04;98970.97;;;13.77;nan
79400;BME280;68856;45.586;10.264;2023-12-20T13:19:31;98962.69;;;14.21;nan
79400;BME280;68856;45.586;10.264;2023-12-20T13:21:58;98968.22;;;14.78;nan
79400;BME280;68856;45.586;10.264;2023-12-20T13:24:24;98962.94;;;15.53;nan